sensor_id;sensor_type;location;lat;lon;timestamp;temperature;humidity
70928;SHT31;58587;53.034;18.576;2022-10-22T00:01:26;9.56;90.23
70928;SHT31;58587;53.034;18.576;2022-10-22T00:03:52;9.62;89.90
70928;SHT31;58587;53.034;18.576;2022-10-22T00:06:18;9.63;89.75
70928;SHT31;58587;53.034;18.576;2022-10-22T00:08:43;9.66;90.22
70928;SHT31;58587;53.034;18.576;2022-10-22T00:11:11;9.69;90.10
70928;SHT31;58587;53.034;18.576;2022-10-22T00:13:37;9.69;90.18
70928;SHT31;58587;53.034;18.576;2022-10-22T00:16:03;9.72;90.12
70928;SHT31;58587;53.034;18.576;2022-10-22T00:18:28;9.73;90.01
70928;SHT31;58587;53.034;18.576;2022-10-22T00:20:54;9.75;90.28
70928;SHT31;58587;53.034;18.576;2022-10-22T00:23:19;9.76;90.57
70928;SHT31;58587;53.034;18.576;2022-10-22T00:25:45;9.78;90.50
70928;SHT31;58587;53.034;18.576;2022-10-22T00:28:10;9.80;90.45
70928;SHT31;58587;53.034;18.576;2022-10-22T00:30:36;9.80;90.64
70928;SHT31;58587;53.034;18.576;2022-10-22T00:33:01;9.82;90.91
70928;SHT31;58587;53.034;18.576;2022-10-22T00:35:27;9.85;90.95
70928;SHT31;58587;53.034;18.576;2022-10-22T00:37:52;9.85;90.64
70928;SHT31;58587;53.034;18.576;2022-10-22T00:40:17;9.86;90.88
70928;SHT31;58587;53.034;18.576;2022-10-22T00:42:43;9.86;91.06
70928;SHT31;58587;53.034;18.576;2022-10-22T00:50:29;9.90;91.15
70928;SHT31;58587;53.034;18.576;2022-10-22T00:52:56;9.90;90.90
70928;SHT31;58587;53.034;18.576;2022-10-22T00:55:23;9.93;90.86
70928;SHT31;58587;53.034;18.576;2022-10-22T00:57:51;9.90;91.02
70928;SHT31;58587;53.034;18.576;2022-10-22T01:00:18;9.93;90.95
70928;SHT31;58587;53.034;18.576;2022-10-22T01:02:44;9.94;91.17
70928;SHT31;58587;53.034;18.576;2022-10-22T01:05:10;9.94;91.22
70928;SHT31;58587;53.034;18.576;2022-10-22T01:07:43;9.97;91.25
70928;SHT31;58587;53.034;18.576;2022-10-22T09:14:22;12.41;94.71
70928;SHT31;58587;53.034;18.576;2022-10-22T09:19:32;12.40;94.79
70928;SHT31;58587;53.034;18.576;2022-10-22T09:24:53;12.38;95.36
70928;SHT31;58587;53.034;18.576;2022-10-22T09:27:25;12.41;95.22
70928;SHT31;58587;53.034;18.576;2022-10-22T09:29:50;12.38;95.18
70928;SHT31;58587;53.034;18.576;2022-10-22T09:32:17;12.44;95.36
70928;SHT31;58587;53.034;18.576;2022-10-22T09:34:44;12.48;95.36
70928;SHT31;58587;53.034;18.576;2022-10-22T09:37:10;12.52;95.27
70928;SHT31;58587;53.034;18.576;2022-10-22T09:42:04;12.51;95.24
70928;SHT31;58587;53.034;18.576;2022-10-22T09:44:32;12.54;95.20
70928;SHT31;58587;53.034;18.576;2022-10-22T09:46:59;12.55;95.35
70928;SHT31;58587;53.034;18.576;2022-10-22T09:49:29;12.61;95.11
70928;SHT31;58587;53.034;18.576;2022-10-22T09:51:58;12.56;95.07
70928;SHT31;58587;53.034;18.576;2022-10-22T09:57:05;12.58;95.19
70928;SHT31;58587;53.034;18.576;2022-10-22T09:59:38;12.63;95.17
70928;SHT31;58587;53.034;18.576;2022-10-22T10:04:35;12.63;95.15
70928;SHT31;58587;53.034;18.576;2022-10-22T10:07:32;12.61;95.29
70928;SHT31;58587;53.034;18.576;2022-10-22T10:09:58;12.68;95.07
70928;SHT31;58587;53.034;18.576;2022-10-22T10:12:39;12.72;94.96
70928;SHT31;58587;53.034;18.576;2022-10-22T10:15:36;12.66;95.19
70928;SHT31;58587;53.034;18.576;2022-10-22T10:24:23;12.76;95.04
70928;SHT31;58587;53.034;18.576;2022-10-22T10:27:19;12.73;95.11
70928;SHT31;58587;53.034;18.576;2022-10-22T10:32:54;12.79;95.07
70928;SHT31;58587;53.034;18.576;2022-10-22T10:46:38;12.81;94.91
70928;SHT31;58587;53.034;18.576;2022-10-22T10:49:16;12.81;94.98
70928;SHT31;58587;53.034;18.576;2022-10-22T10:52:19;12.81;95.17
70928;SHT31;58587;53.034;18.576;2022-10-22T10:54:56;12.83;95.12
70928;SHT31;58587;53.034;18.576;2022-10-22T10:57:48;12.79;95.13
70928;SHT31;58587;53.034;18.576;2022-10-22T11:00:19;12.82;95.26
70928;SHT31;58587;53.034;18.576;2022-10-22T11:05:53;12.85;95.01
70928;SHT31;58587;53.034;18.576;2022-10-22T11:08:26;12.83;95.21
70928;SHT31;58587;53.034;18.576;2022-10-22T11:11:00;12.79;95.39
70928;SHT31;58587;53.034;18.576;2022-10-22T11:13:30;12.82;95.42
70928;SHT31;58587;53.034;18.576;2022-10-22T11:16:05;12.78;95.33
70928;SHT31;58587;53.034;18.576;2022-10-22T11:18:45;12.82;95.25
70928;SHT31;58587;53.034;18.576;2022-10-22T11:23:52;12.81;95.41
70928;SHT31;58587;53.034;18.576;2022-10-22T11:26:31;12.81;95.20
70928;SHT31;58587;53.034;18.576;2022-10-22T11:28:59;12.85;95.40
70928;SHT31;58587;53.034;18.576;2022-10-22T11:31:26;12.83;95.35
70928;SHT31;58587;53.034;18.576;2022-10-22T11:36:42;12.86;95.24
70928;SHT31;58587;53.034;18.576;2022-10-22T11:39:49;12.79;95.82
70928;SHT31;58587;53.034;18.576;2022-10-22T11:42:22;12.82;95.76
70928;SHT31;58587;53.034;18.576;2022-10-22T11:45:02;12.83;95.44
70928;SHT31;58587;53.034;18.576;2022-10-22T11:50:25;12.81;95.76
70928;SHT31;58587;53.034;18.576;2022-10-22T11:53:03;12.81;95.58
70928;SHT31;58587;53.034;18.576;2022-10-22T12:04:21;12.86;95.48
70928;SHT31;58587;53.034;18.576;2022-10-22T12:09:22;12.91;95.48
70928;SHT31;58587;53.034;18.576;2022-10-22T12:11:49;12.91;95.47
70928;SHT31;58587;53.034;18.576;2022-10-22T12:14:33;12.91;95.50
70928;SHT31;58587;53.034;18.576;2022-10-22T12:17:09;12.92;95.50
70928;SHT31;58587;53.034;18.576;2022-10-22T12:19:59;12.88;95.65
70928;SHT31;58587;53.034;18.576;2022-10-22T12:22:31;12.88;96.01
70928;SHT31;58587;53.034;18.576;2022-10-22T12:25:00;12.92;95.87
70928;SHT31;58587;53.034;18.576;2022-10-22T12:27:36;12.93;95.70
70928;SHT31;58587;53.034;18.576;2022-10-22T12:30:17;12.93;95.75
70928;SHT31;58587;53.034;18.576;2022-10-22T12:32:43;12.97;95.70
70928;SHT31;58587;53.034;18.576;2022-10-22T12:35:21;12.96;95.68
70928;SHT31;58587;53.034;18.576;2022-10-22T12:37:51;12.97;95.74
70928;SHT31;58587;53.034;18.576;2022-10-22T12:40:29;13.02;95.74
70928;SHT31;58587;53.034;18.576;2022-10-22T12:43:00;13.03;95.59
70928;SHT31;58587;53.034;18.576;2022-10-22T12:45:27;13.02;95.80
70928;SHT31;58587;53.034;18.576;2022-10-22T12:47:59;13.05;95.86
70928;SHT31;58587;53.034;18.576;2022-10-22T12:50:51;13.09;95.84
70928;SHT31;58587;53.034;18.576;2022-10-22T12:53:23;13.10;95.85
70928;SHT31;58587;53.034;18.576;2022-10-22T12:55:53;13.10;95.87
70928;SHT31;58587;53.034;18.576;2022-10-22T12:58:24;13.09;96.03
70928;SHT31;58587;53.034;18.576;2022-10-22T13:00:54;13.12;96.13
70928;SHT31;58587;53.034;18.576;2022-10-22T13:03:30;13.10;96.21
70928;SHT31;58587;53.034;18.576;2022-10-22T13:08:56;13.13;96.00
70928;SHT31;58587;53.034;18.576;2022-10-22T13:11:22;13.10;95.91
70928;SHT31;58587;53.034;18.576;2022-10-22T13:13:47;13.10;96.07
70928;SHT31;58587;53.034;18.576;2022-10-22T13:16:22;13.15;95.96
70928;SHT31;58587;53.034;18.576;2022-10-22T13:18:52;13.13;95.83
70928;SHT31;58587;53.034;18.576;2022-10-22T13:21:35;13.09;95.94
70928;SHT31;58587;53.034;18.576;2022-10-22T13:24:18;13.12;95.99
70928;SHT31;58587;53.034;18.576;2022-10-22T13:26:51;13.09;96.02
70928;SHT31;58587;53.034;18.576;2022-10-22T13:29:19;13.09;96.04
70928;SHT31;58587;53.034;18.576;2022-10-22T13:31:46;13.05;96.25
70928;SHT31;58587;53.034;18.576;2022-10-22T13:34:16;13.05;96.28
70928;SHT31;58587;53.034;18.576;2022-10-22T13:36:42;13.06;96.33
70928;SHT31;58587;53.034;18.576;2022-10-22T13:39:22;13.07;96.20
70928;SHT31;58587;53.034;18.576;2022-10-22T13:41:48;13.07;96.28
70928;SHT31;58587;53.034;18.576;2022-10-22T13:44:15;13.05;96.31
70928;SHT31;58587;53.034;18.576;2022-10-22T13:46:41;13.05;96.39
70928;SHT31;58587;53.034;18.576;2022-10-22T13:49:11;13.07;96.25
70928;SHT31;58587;53.034;18.576;2022-10-22T13:51:38;13.09;96.36
70928;SHT31;58587;53.034;18.576;2022-10-22T13:54:13;13.09;96.26
70928;SHT31;58587;53.034;18.576;2022-10-22T13:56:39;13.09;96.32
70928;SHT31;58587;53.034;18.576;2022-10-22T13:59:04;13.09;96.30
70928;SHT31;58587;53.034;18.576;2022-10-22T14:01:30;13.07;96.26
70928;SHT31;58587;53.034;18.576;2022-10-22T14:03:57;13.03;96.65
70928;SHT31;58587;53.034;18.576;2022-10-22T14:06:28;13.06;96.52
70928;SHT31;58587;53.034;18.576;2022-10-22T14:09:00;13.06;96.65
70928;SHT31;58587;53.034;18.576;2022-10-22T14:11:26;13.03;96.59
70928;SHT31;58587;53.034;18.576;2022-10-22T14:13:53;13.06;96.49
70928;SHT31;58587;53.034;18.576;2022-10-22T14:16:22;13.03;96.66
70928;SHT31;58587;53.034;18.576;2022-10-22T14:18:49;13.06;96.45
70928;SHT31;58587;53.034;18.576;2022-10-22T14:21:15;13.03;96.51
70928;SHT31;58587;53.034;18.576;2022-10-22T14:23:43;13.03;96.64
70928;SHT31;58587;53.034;18.576;2022-10-22T14:26:27;13.05;96.49
70928;SHT31;58587;53.034;18.576;2022-10-22T14:28:54;13.02;96.48
70928;SHT31;58587;53.034;18.576;2022-10-22T14:31:20;13.03;96.44
70928;SHT31;58587;53.034;18.576;2022-10-22T14:33:45;13.00;96.63
70928;SHT31;58587;53.034;18.576;2022-10-22T14:36:13;13.00;96.62
70928;SHT31;58587;53.034;18.576;2022-10-22T14:38:40;12.99;96.72
70928;SHT31;58587;53.034;18.576;2022-10-22T14:41:16;12.99;96.56
70928;SHT31;58587;53.034;18.576;2022-10-22T14:43:42;12.97;96.98
70928;SHT31;58587;53.034;18.576;2022-10-22T14:46:10;12.97;96.85
70928;SHT31;58587;53.034;18.576;2022-10-22T14:48:36;12.96;96.88
70928;SHT31;58587;53.034;18.576;2022-10-22T14:51:02;12.97;96.92
70928;SHT31;58587;53.034;18.576;2022-10-22T14:53:28;12.97;96.76
70928;SHT31;58587;53.034;18.576;2022-10-22T14:55:53;12.96;96.89
70928;SHT31;58587;53.034;18.576;2022-10-22T14:58:23;12.93;96.98
70928;SHT31;58587;53.034;18.576;2022-10-22T15:00:48;12.96;97.06
70928;SHT31;58587;53.034;18.576;2022-10-22T15:03:14;12.93;96.88
70928;SHT31;58587;53.034;18.576;2022-10-22T15:05:40;12.97;96.66
70928;SHT31;58587;53.034;18.576;2022-10-22T15:08:09;12.96;96.65
70928;SHT31;58587;53.034;18.576;2022-10-22T15:10:35;12.93;96.53
70928;SHT31;58587;53.034;18.576;2022-10-22T15:13:00;12.95;96.83
70928;SHT31;58587;53.034;18.576;2022-10-22T15:15:26;12.93;96.95
70928;SHT31;58587;53.034;18.576;2022-10-22T15:17:51;12.92;96.89
70928;SHT31;58587;53.034;18.576;2022-10-22T15:20:17;12.93;96.65
70928;SHT31;58587;53.034;18.576;2022-10-22T15:22:42;12.93;96.98
70928;SHT31;58587;53.034;18.576;2022-10-22T15:25:08;12.93;97.01
70928;SHT31;58587;53.034;18.576;2022-10-22T15:27:34;12.93;96.87
70928;SHT31;58587;53.034;18.576;2022-10-22T15:29:59;12.95;96.87
70928;SHT31;58587;53.034;18.576;2022-10-22T15:32:26;12.93;96.80
70928;SHT31;58587;53.034;18.576;2022-10-22T15:34:54;12.92;96.76
70928;SHT31;58587;53.034;18.576;2022-10-22T15:37:19;12.92;96.87
70928;SHT31;58587;53.034;18.576;2022-10-22T15:39:45;12.95;96.69
70928;SHT31;58587;53.034;18.576;2022-10-22T15:42:11;12.91;96.88
70928;SHT31;58587;53.034;18.576;2022-10-22T15:44:39;12.91;96.81
70928;SHT31;58587;53.034;18.576;2022-10-22T15:47:05;12.89;97.02
70928;SHT31;58587;53.034;18.576;2022-10-22T15:49:33;12.89;97.01
70928;SHT31;58587;53.034;18.576;2022-10-22T15:51:59;12.91;97.02
70928;SHT31;58587;53.034;18.576;2022-10-22T15:54:27;12.92;96.74
70928;SHT31;58587;53.034;18.576;2022-10-22T15:56:54;12.88;97.01
70928;SHT31;58587;53.034;18.576;2022-10-22T15:59:19;12.91;96.70
70928;SHT31;58587;53.034;18.576;2022-10-22T16:01:45;12.92;96.73
70928;SHT31;58587;53.034;18.576;2022-10-22T16:04:10;12.88;96.80
70928;SHT31;58587;53.034;18.576;2022-10-22T16:09:08;12.89;96.73
70928;SHT31;58587;53.034;18.576;2022-10-22T16:11:35;12.89;96.74
70928;SHT31;58587;53.034;18.576;2022-10-22T16:14:00;12.89;96.94
70928;SHT31;58587;53.034;18.576;2022-10-22T16:16:29;12.88;97.12
70928;SHT31;58587;53.034;18.576;2022-10-22T16:18:55;12.91;96.98
70928;SHT31;58587;53.034;18.576;2022-10-22T16:21:21;12.89;97.07
70928;SHT31;58587;53.034;18.576;2022-10-22T16:23:47;12.89;97.08
70928;SHT31;58587;53.034;18.576;2022-10-22T16:26:14;12.89;96.98
70928;SHT31;58587;53.034;18.576;2022-10-22T16:28:41;12.93;97.00
70928;SHT31;58587;53.034;18.576;2022-10-22T16:31:09;12.92;96.89
70928;SHT31;58587;53.034;18.576;2022-10-22T16:33:36;12.88;96.85
70928;SHT31;58587;53.034;18.576;2022-10-22T16:36:04;12.85;97.01
70928;SHT31;58587;53.034;18.576;2022-10-22T16:38:29;12.89;97.11
70928;SHT31;58587;53.034;18.576;2022-10-22T16:41:08;12.88;97.24
70928;SHT31;58587;53.034;18.576;2022-10-22T16:43:34;12.91;97.07
70928;SHT31;58587;53.034;18.576;2022-10-22T16:45:59;12.91;97.09
70928;SHT31;58587;53.034;18.576;2022-10-22T16:48:25;12.89;97.13
70928;SHT31;58587;53.034;18.576;2022-10-22T16:50:53;12.88;97.35
70928;SHT31;58587;53.034;18.576;2022-10-22T16:53:18;12.88;97.47
70928;SHT31;58587;53.034;18.576;2022-10-22T16:55:43;12.85;97.45
70928;SHT31;58587;53.034;18.576;2022-10-22T16:58:09;12.88;97.54
70928;SHT31;58587;53.034;18.576;2022-10-22T17:00:34;12.88;97.50
70928;SHT31;58587;53.034;18.576;2022-10-22T17:03:00;12.88;97.47
70928;SHT31;58587;53.034;18.576;2022-10-22T17:05:25;12.92;97.54
70928;SHT31;58587;53.034;18.576;2022-10-22T17:07:50;12.95;97.40
70928;SHT31;58587;53.034;18.576;2022-10-22T17:10:18;12.92;97.34
70928;SHT31;58587;53.034;18.576;2022-10-22T17:12:45;12.91;97.64
70928;SHT31;58587;53.034;18.576;2022-10-22T17:15:11;12.88;97.54
70928;SHT31;58587;53.034;18.576;2022-10-22T17:17:36;12.93;97.65
70928;SHT31;58587;53.034;18.576;2022-10-22T17:20:02;12.93;97.46
70928;SHT31;58587;53.034;18.576;2022-10-22T17:22:28;12.91;97.33
70928;SHT31;58587;53.034;18.576;2022-10-22T17:25:35;12.95;97.57
70928;SHT31;58587;53.034;18.576;2022-10-22T17:28:04;12.96;97.35
70928;SHT31;58587;53.034;18.576;2022-10-22T17:30:30;12.97;97.57
70928;SHT31;58587;53.034;18.576;2022-10-22T17:32:56;12.99;97.36
70928;SHT31;58587;53.034;18.576;2022-10-22T17:35:21;12.99;97.35
70928;SHT31;58587;53.034;18.576;2022-10-22T17:37:46;12.99;97.39
70928;SHT31;58587;53.034;18.576;2022-10-22T17:40:12;13.00;97.27
70928;SHT31;58587;53.034;18.576;2022-10-22T17:42:38;12.99;97.25
70928;SHT31;58587;53.034;18.576;2022-10-22T17:45:04;12.97;97.34
70928;SHT31;58587;53.034;18.576;2022-10-22T17:47:30;12.99;97.33
70928;SHT31;58587;53.034;18.576;2022-10-22T17:49:55;13.00;97.16
70928;SHT31;58587;53.034;18.576;2022-10-22T17:52:20;13.00;97.19
70928;SHT31;58587;53.034;18.576;2022-10-22T17:54:47;13.03;97.28
70928;SHT31;58587;53.034;18.576;2022-10-22T17:57:13;12.97;97.32
70928;SHT31;58587;53.034;18.576;2022-10-22T17:59:38;12.99;97.32
70928;SHT31;58587;53.034;18.576;2022-10-22T18:02:04;13.00;97.31
70928;SHT31;58587;53.034;18.576;2022-10-22T18:04:30;13.02;97.35
70928;SHT31;58587;53.034;18.576;2022-10-22T18:06:57;13.00;97.43
70928;SHT31;58587;53.034;18.576;2022-10-22T18:09:23;12.95;97.54
70928;SHT31;58587;53.034;18.576;2022-10-22T18:11:51;13.00;97.51
70928;SHT31;58587;53.034;18.576;2022-10-22T18:14:18;12.99;97.32
70928;SHT31;58587;53.034;18.576;2022-10-22T18:16:43;12.97;97.41
70928;SHT31;58587;53.034;18.576;2022-10-22T18:19:10;12.99;97.25
70928;SHT31;58587;53.034;18.576;2022-10-22T18:21:38;12.96;97.39
70928;SHT31;58587;53.034;18.576;2022-10-22T18:24:04;12.99;97.36
70928;SHT31;58587;53.034;18.576;2022-10-22T18:26:29;12.97;97.31
70928;SHT31;58587;53.034;18.576;2022-10-22T18:28:57;12.95;97.55
70928;SHT31;58587;53.034;18.576;2022-10-22T18:31:25;12.95;97.57
70928;SHT31;58587;53.034;18.576;2022-10-22T18:33:51;12.95;97.47
70928;SHT31;58587;53.034;18.576;2022-10-22T18:36:19;12.91;97.53
70928;SHT31;58587;53.034;18.576;2022-10-22T18:38:52;12.91;97.45
70928;SHT31;58587;53.034;18.576;2022-10-22T18:41:18;12.92;97.47
70928;SHT31;58587;53.034;18.576;2022-10-22T18:43:51;12.91;97.53
70928;SHT31;58587;53.034;18.576;2022-10-22T18:46:17;12.92;97.55
70928;SHT31;58587;53.034;18.576;2022-10-22T18:48:43;12.89;97.60
70928;SHT31;58587;53.034;18.576;2022-10-22T18:51:08;12.92;97.74
70928;SHT31;58587;53.034;18.576;2022-10-22T18:53:35;12.93;97.66
70928;SHT31;58587;53.034;18.576;2022-10-22T18:56:04;12.93;97.65
70928;SHT31;58587;53.034;18.576;2022-10-22T18:58:30;12.92;97.70
70928;SHT31;58587;53.034;18.576;2022-10-22T19:00:56;12.91;97.63
70928;SHT31;58587;53.034;18.576;2022-10-22T19:03:21;12.92;97.47
70928;SHT31;58587;53.034;18.576;2022-10-22T19:05:51;12.88;97.57
70928;SHT31;58587;53.034;18.576;2022-10-22T19:08:18;12.89;97.45
70928;SHT31;58587;53.034;18.576;2022-10-22T19:10:45;12.89;97.67
70928;SHT31;58587;53.034;18.576;2022-10-22T19:13:15;12.86;97.73
70928;SHT31;58587;53.034;18.576;2022-10-22T19:15:41;12.88;97.91
70928;SHT31;58587;53.034;18.576;2022-10-22T19:18:07;12.91;97.76
70928;SHT31;58587;53.034;18.576;2022-10-22T19:20:33;12.92;97.56
70928;SHT31;58587;53.034;18.576;2022-10-22T19:22:59;12.92;97.52
70928;SHT31;58587;53.034;18.576;2022-10-22T19:25:25;12.93;97.60
70928;SHT31;58587;53.034;18.576;2022-10-22T19:27:50;12.93;97.44
70928;SHT31;58587;53.034;18.576;2022-10-22T19:30:16;12.95;97.79
70928;SHT31;58587;53.034;18.576;2022-10-22T19:32:43;12.93;97.92
70928;SHT31;58587;53.034;18.576;2022-10-22T19:35:08;12.96;97.71
70928;SHT31;58587;53.034;18.576;2022-10-22T19:37:34;12.99;97.67
70928;SHT31;58587;53.034;18.576;2022-10-22T19:40:01;12.99;97.62
70928;SHT31;58587;53.034;18.576;2022-10-22T19:42:26;13.00;97.64
70928;SHT31;58587;53.034;18.576;2022-10-22T19:44:52;13.02;97.69
70928;SHT31;58587;53.034;18.576;2022-10-22T19:47:17;13.05;97.65
70928;SHT31;58587;53.034;18.576;2022-10-22T19:49:42;13.06;97.60
70928;SHT31;58587;53.034;18.576;2022-10-22T19:52:08;13.06;97.56
70928;SHT31;58587;53.034;18.576;2022-10-22T19:54:33;13.05;97.35
70928;SHT31;58587;53.034;18.576;2022-10-22T19:57:01;13.09;97.32
70928;SHT31;58587;53.034;18.576;2022-10-22T19:59:27;13.09;97.24
70928;SHT31;58587;53.034;18.576;2022-10-22T20:01:52;13.06;97.37
70928;SHT31;58587;53.034;18.576;2022-10-22T20:04:18;13.07;97.48
70928;SHT31;58587;53.034;18.576;2022-10-22T20:06:46;13.07;97.21
70928;SHT31;58587;53.034;18.576;2022-10-22T20:09:12;13.10;97.34
70928;SHT31;58587;53.034;18.576;2022-10-22T20:11:38;13.10;97.13
70928;SHT31;58587;53.034;18.576;2022-10-22T20:14:03;13.10;97.27
70928;SHT31;58587;53.034;18.576;2022-10-22T20:16:29;13.10;97.20
70928;SHT31;58587;53.034;18.576;2022-10-22T20:18:58;13.13;97.36
70928;SHT31;58587;53.034;18.576;2022-10-22T20:21:25;13.12;97.26
70928;SHT31;58587;53.034;18.576;2022-10-22T20:23:52;13.12;97.51
70928;SHT31;58587;53.034;18.576;2022-10-22T20:26:18;13.10;97.47
70928;SHT31;58587;53.034;18.576;2022-10-22T20:28:44;13.13;97.40
70928;SHT31;58587;53.034;18.576;2022-10-22T20:31:15;13.16;97.46
70928;SHT31;58587;53.034;18.576;2022-10-22T20:33:41;13.16;97.40
70928;SHT31;58587;53.034;18.576;2022-10-22T20:36:12;13.15;97.41
70928;SHT31;58587;53.034;18.576;2022-10-22T20:38:41;13.17;97.26
70928;SHT31;58587;53.034;18.576;2022-10-22T20:41:09;13.15;97.48
70928;SHT31;58587;53.034;18.576;2022-10-22T20:43:35;13.15;97.57
70928;SHT31;58587;53.034;18.576;2022-10-22T20:46:02;13.17;97.58
70928;SHT31;58587;53.034;18.576;2022-10-22T20:48:27;13.17;97.33
70928;SHT31;58587;53.034;18.576;2022-10-22T20:50:59;13.16;97.63
70928;SHT31;58587;53.034;18.576;2022-10-22T20:53:26;13.19;97.62
70928;SHT31;58587;53.034;18.576;2022-10-22T20:55:55;13.15;97.67
70928;SHT31;58587;53.034;18.576;2022-10-22T20:58:21;13.20;97.81
70928;SHT31;58587;53.034;18.576;2022-10-22T21:00:46;13.17;97.67
70928;SHT31;58587;53.034;18.576;2022-10-22T21:03:13;13.20;97.76
70928;SHT31;58587;53.034;18.576;2022-10-22T21:05:39;13.19;97.64
70928;SHT31;58587;53.034;18.576;2022-10-22T21:08:05;13.23;97.73
70928;SHT31;58587;53.034;18.576;2022-10-22T21:10:31;13.22;97.63
70928;SHT31;58587;53.034;18.576;2022-10-22T21:12:57;13.24;97.74
70928;SHT31;58587;53.034;18.576;2022-10-22T21:15:23;13.26;97.75
70928;SHT31;58587;53.034;18.576;2022-10-22T21:17:48;13.24;97.77
70928;SHT31;58587;53.034;18.576;2022-10-22T21:20:14;13.23;97.72
70928;SHT31;58587;53.034;18.576;2022-10-22T21:22:39;13.27;97.81
70928;SHT31;58587;53.034;18.576;2022-10-22T21:25:05;13.28;97.74
70928;SHT31;58587;53.034;18.576;2022-10-22T21:27:30;13.30;97.77
70928;SHT31;58587;53.034;18.576;2022-10-22T21:29:56;13.28;97.83
70928;SHT31;58587;53.034;18.576;2022-10-22T21:32:21;13.30;97.85
70928;SHT31;58587;53.034;18.576;2022-10-22T21:34:47;13.32;97.77
70928;SHT31;58587;53.034;18.576;2022-10-22T21:37:12;13.33;97.73
70928;SHT31;58587;53.034;18.576;2022-10-22T21:39:37;13.33;97.76
70928;SHT31;58587;53.034;18.576;2022-10-22T21:42:03;13.37;97.91
70928;SHT31;58587;53.034;18.576;2022-10-22T21:44:28;13.33;97.88
70928;SHT31;58587;53.034;18.576;2022-10-22T21:46:54;13.36;97.88
70928;SHT31;58587;53.034;18.576;2022-10-22T21:49:19;13.35;97.92
70928;SHT31;58587;53.034;18.576;2022-10-22T21:51:45;13.35;97.87
70928;SHT31;58587;53.034;18.576;2022-10-22T21:54:10;13.36;97.87
70928;SHT31;58587;53.034;18.576;2022-10-22T21:56:37;13.37;97.83
70928;SHT31;58587;53.034;18.576;2022-10-22T21:59:04;13.39;97.76
70928;SHT31;58587;53.034;18.576;2022-10-22T22:01:30;13.39;97.70
70928;SHT31;58587;53.034;18.576;2022-10-22T22:03:56;13.40;97.65
70928;SHT31;58587;53.034;18.576;2022-10-22T22:06:23;13.42;97.76
70928;SHT31;58587;53.034;18.576;2022-10-22T22:08:51;13.42;97.68
70928;SHT31;58587;53.034;18.576;2022-10-22T22:11:27;13.42;97.68
70928;SHT31;58587;53.034;18.576;2022-10-22T22:13:53;13.37;97.78
70928;SHT31;58587;53.034;18.576;2022-10-22T22:16:22;13.43;97.85
70928;SHT31;58587;53.034;18.576;2022-10-22T22:18:48;13.42;97.73
70928;SHT31;58587;53.034;18.576;2022-10-22T22:21:16;13.40;97.48
70928;SHT31;58587;53.034;18.576;2022-10-22T22:23:43;13.43;97.58
70928;SHT31;58587;53.034;18.576;2022-10-22T22:26:10;13.43;97.58
70928;SHT31;58587;53.034;18.576;2022-10-22T22:28:36;13.46;97.54
70928;SHT31;58587;53.034;18.576;2022-10-22T22:31:11;13.44;97.52
70928;SHT31;58587;53.034;18.576;2022-10-22T22:33:36;13.47;97.52
70928;SHT31;58587;53.034;18.576;2022-10-22T22:36:02;13.46;97.49
70928;SHT31;58587;53.034;18.576;2022-10-22T22:38:27;13.43;97.31
70928;SHT31;58587;53.034;18.576;2022-10-22T22:40:53;13.44;97.40
70928;SHT31;58587;53.034;18.576;2022-10-22T22:43:18;13.44;97.40
70928;SHT31;58587;53.034;18.576;2022-10-22T22:45:43;13.39;97.26
70928;SHT31;58587;53.034;18.576;2022-10-22T22:48:09;13.40;97.51
70928;SHT31;58587;53.034;18.576;2022-10-22T22:50:35;13.37;97.43
70928;SHT31;58587;53.034;18.576;2022-10-22T22:53:01;13.37;97.29
70928;SHT31;58587;53.034;18.576;2022-10-22T22:55:26;13.33;97.45
70928;SHT31;58587;53.034;18.576;2022-10-22T22:57:52;13.28;97.10
70928;SHT31;58587;53.034;18.576;2022-10-22T23:00:17;13.28;97.06
70928;SHT31;58587;53.034;18.576;2022-10-22T23:02:43;13.22;96.88
70928;SHT31;58587;53.034;18.576;2022-10-22T23:05:08;13.20;96.72
70928;SHT31;58587;53.034;18.576;2022-10-22T23:07:34;13.19;96.67
70928;SHT31;58587;53.034;18.576;2022-10-22T23:09:59;13.19;96.84
70928;SHT31;58587;53.034;18.576;2022-10-22T23:12:25;13.16;97.12
70928;SHT31;58587;53.034;18.576;2022-10-22T23:14:50;13.16;97.11
70928;SHT31;58587;53.034;18.576;2022-10-22T23:17:17;13.13;97.25
70928;SHT31;58587;53.034;18.576;2022-10-22T23:19:42;13.10;97.21
70928;SHT31;58587;53.034;18.576;2022-10-22T23:22:08;13.09;97.45
70928;SHT31;58587;53.034;18.576;2022-10-22T23:24:33;13.09;97.58
70928;SHT31;58587;53.034;18.576;2022-10-22T23:27:00;13.10;97.59
70928;SHT31;58587;53.034;18.576;2022-10-22T23:29:29;13.07;97.66
70928;SHT31;58587;53.034;18.576;2022-10-22T23:32:01;13.03;97.41
70928;SHT31;58587;53.034;18.576;2022-10-22T23:34:27;13.02;97.44
70928;SHT31;58587;53.034;18.576;2022-10-22T23:36:54;12.99;97.31
70928;SHT31;58587;53.034;18.576;2022-10-22T23:39:22;12.93;97.02
70928;SHT31;58587;53.034;18.576;2022-10-22T23:41:48;12.91;97.34
70928;SHT31;58587;53.034;18.576;2022-10-22T23:44:13;12.88;97.06
70928;SHT31;58587;53.034;18.576;2022-10-22T23:46:39;12.81;96.83
70928;SHT31;58587;53.034;18.576;2022-10-22T23:49:06;12.72;97.12
70928;SHT31;58587;53.034;18.576;2022-10-22T23:51:33;12.71;97.15
70928;SHT31;58587;53.034;18.576;2022-10-22T23:54:03;12.65;97.16
70928;SHT31;58587;53.034;18.576;2022-10-22T23:56:30;12.59;96.72
70928;SHT31;58587;53.034;18.576;2022-10-22T23:58:56;12.54;96.72
